Time;durP1;ratioP1;P1;durP2;ratioP2;P2;SDS_P1;SDS_P2;PMS_P1;PMS_P2;Temp;Humidity;BMP_temperature;BMP_pressure;BME280_temperature;BME280_humidity;BME280_pressure;Samples;Min_cycle;Max_cycle;Signal;HPM_P1;HPM_P2
2023/09/02 00:01:39;;;;;;;7.00;4.40;;;;;;;;;;5091388;28;20048;-79
2023/09/02 00:04:04;;;;;;;7.85;4.97;;;;;;;;;;5091221;28;20024;-79
2023/09/02 00:06:30;;;;;;;7.78;4.85;;;;;;;;;;5091252;28;20024;-79
2023/09/02 00:08:55;;;;;;;7.47;4.75;;;;;;;;;;5091523;28;20053;-79
2023/09/02 00:11:21;;;;;;;8.95;4.93;;;;;;;;;;5085586;28;20096;-79
2023/09/02 00:13:46;;;;;;;10.60;5.03;;;;;;;;;;5089593;28;20031;-79
2023/09/02 00:16:13;;;;;;;7.95;4.50;;;;;;;;;;5089676;28;20169;-79
2023/09/02 00:18:39;;;;;;;9.18;4.65;;;;;;;;;;5090812;28;20035;-79
2023/09/02 00:21:04;;;;;;;7.20;4.65;;;;;;;;;;5072678;28;20036;-79
2023/09/02 00:23:31;;;;;;;8.52;4.75;;;;;;;;;;5089972;28;20407;-78
2023/09/02 00:25:57;;;;;;;8.88;4.80;;;;;;;;;;5089507;28;20171;-79
2023/09/02 00:28:22;;;;;;;9.68;4.40;;;;;;;;;;5091213;28;20118;-79
2023/09/02 00:30:48;;;;;;;10.90;4.68;;;;;;;;;;5089631;28;20143;-79
2023/09/02 00:33:13;;;;;;;8.32;4.22;;;;;;;;;;5055912;28;20023;-79
2023/09/02 00:35:39;;;;;;;10.57;4.72;;;;;;;;;;5089314;28;20039;-79
2023/09/02 00:38:04;;;;;;;7.68;4.93;;;;;;;;;;5087636;28;20394;-79
2023/09/02 00:40:30;;;;;;;8.07;5.10;;;;;;;;;;5089548;28;20040;-79
2023/09/02 00:42:55;;;;;;;9.70;4.78;;;;;;;;;;5072608;28;20027;-79
2023/09/02 00:45:22;;;;;;;6.15;5.10;;;;;;;;;;5070874;28;20438;-77
2023/09/02 00:47:50;;;;;;;11.07;5.00;;;;;;;;;;5079291;28;20032;-78
2023/09/02 00:50:16;;;;;;;7.15;4.30;;;;;;;;;;5071543;28;20131;-79
2023/09/02 00:52:41;;;;;;;8.52;5.10;;;;;;;;;;5072608;28;20119;-79
2023/09/02 00:55:07;;;;;;;7.60;4.50;;;;;;;;;;5089199;28;20044;-78
2023/09/02 00:57:32;;;;;;;10.93;4.82;;;;;;;;;;5072610;28;20039;-79
2023/09/02 00:59:58;;;;;;;8.95;4.60;;;;;;;;;;5089092;28;20044;-79
2023/09/02 01:02:24;;;;;;;9.57;5.28;;;;;;;;;;5089304;28;20115;-78
2023/09/02 01:04:50;;;;;;;9.48;4.95;;;;;;;;;;5072652;28;20056;-78
2023/09/02 01:07:16;;;;;;;7.95;4.78;;;;;;;;;;5090555;28;20048;-79
2023/09/02 01:09:41;;;;;;;9.13;5.10;;;;;;;;;;5088976;28;20481;-78
2023/09/02 01:12:07;;;;;;;11.73;5.03;;;;;;;;;;5056667;28;20024;-79
2023/09/02 01:14:32;;;;;;;11.93;5.80;;;;;;;;;;5089783;28;20044;-78
2023/09/02 01:16:58;;;;;;;10.75;5.07;;;;;;;;;;5089275;28;20383;-79
2023/09/02 01:19:24;;;;;;;8.00;4.82;;;;;;;;;;5089090;28;20063;-78
2023/09/02 01:21:58;;;;;;;11.70;5.55;;;;;;;;;;5088822;28;20024;-79
2023/09/02 01:24:27;;;;;;;10.07;4.75;;;;;;;;;;5088930;28;20043;-79
2023/09/02 01:27:15;;;;;;;8.57;5.10;;;;;;;;;;5080063;28;20094;-79
2023/09/02 01:29:43;;;;;;;9.25;4.63;;;;;;;;;;5081551;28;20046;-78
2023/09/02 01:32:09;;;;;;;8.05;4.80;;;;;;;;;;5075778;28;20028;-79
2023/09/02 01:34:34;;;;;;;7.55;4.90;;;;;;;;;;5087600;28;20407;-79
2023/09/02 01:37:00;;;;;;;8.27;4.63;;;;;;;;;;5078183;28;20552;-78
2023/09/02 01:39:26;;;;;;;9.02;5.15;;;;;;;;;;5088278;28;20039;-79
2023/09/02 01:41:52;;;;;;;8.55;4.90;;;;;;;;;;5090103;28;20028;-79
2023/09/02 01:44:18;;;;;;;8.23;4.70;;;;;;;;;;5068851;28;20819;-79
2023/09/02 01:46:44;;;;;;;8.55;4.50;;;;;;;;;;5094051;28;20027;-79
2023/09/02 01:49:10;;;;;;;8.25;4.80;;;;;;;;;;5090139;28;20133;-79
2023/09/02 01:51:35;;;;;;;9.30;4.85;;;;;;;;;;5089373;28;20072;-79
2023/09/02 01:54:00;;;;;;;7.70;4.90;;;;;;;;;;5090976;28;20035;-79
2023/09/02 01:56:26;;;;;;;7.80;5.05;;;;;;;;;;5092570;28;20039;-79
2023/09/02 01:58:53;;;;;;;9.27;5.00;;;;;;;;;;5092973;28;20028;-78
2023/09/02 02:01:18;;;;;;;9.45;5.10;;;;;;;;;;5064016;28;20471;-78
2023/09/02 02:03:59;;;;;;;8.35;5.00;;;;;;;;;;5075369;28;20032;-78
2023/09/02 02:06:24;;;;;;;8.82;5.53;;;;;;;;;;5092028;28;20063;-78
2023/09/02 02:08:54;;;;;;;10.98;4.43;;;;;;;;;;5091841;28;20039;-78
2023/09/02 02:11:20;;;;;;;9.30;5.60;;;;;;;;;;5075056;28;20063;-78
2023/09/02 02:13:48;;;;;;;9.05;5.30;;;;;;;;;;5072193;28;20428;-78
2023/09/02 02:16:14;;;;;;;7.07;4.88;;;;;;;;;;5074882;28;20449;-78
2023/09/02 02:18:39;;;;;;;9.70;6.15;;;;;;;;;;5092148;28;20042;-78
2023/09/02 02:21:05;;;;;;;8.55;5.90;;;;;;;;;;5091593;28;20127;-78
2023/09/02 02:23:31;;;;;;;8.68;5.00;;;;;;;;;;5092128;28;20031;-78
2023/09/02 02:26:00;;;;;;;8.73;5.55;;;;;;;;;;5091707;28;20134;-78
2023/09/02 02:28:25;;;;;;;9.32;5.70;;;;;;;;;;5094243;28;20031;-78
2023/09/02 02:30:53;;;;;;;9.23;6.20;;;;;;;;;;5072072;28;20153;-78
2023/09/02 02:33:18;;;;;;;8.70;4.90;;;;;;;;;;5084786;28;20874;-78
2023/09/02 02:35:44;;;;;;;11.23;5.68;;;;;;;;;;5071385;28;20474;-79
2023/09/02 02:38:09;;;;;;;9.15;4.80;;;;;;;;;;5091913;28;20376;-79
2023/09/02 02:40:35;;;;;;;8.68;6.32;;;;;;;;;;5092889;28;20502;-79
2023/09/02 02:43:01;;;;;;;10.88;6.22;;;;;;;;;;5092782;28;20099;-79
2023/09/02 02:45:27;;;;;;;8.50;4.97;;;;;;;;;;5090025;28;20039;-79
2023/09/02 02:47:53;;;;;;;8.93;4.95;;;;;;;;;;5093135;28;20514;-79
2023/09/02 02:50:19;;;;;;;7.97;5.60;;;;;;;;;;5092781;28;20032;-79
2023/09/02 02:52:45;;;;;;;8.80;5.32;;;;;;;;;;5092822;28;20028;-79
2023/09/02 02:55:12;;;;;;;8.18;4.95;;;;;;;;;;5074438;28;20091;-79
2023/09/02 02:57:38;;;;;;;9.27;5.10;;;;;;;;;;5074676;28;20036;-79
2023/09/02 03:00:09;;;;;;;9.93;5.43;;;;;;;;;;5090871;28;20039;-79
2023/09/02 03:02:35;;;;;;;8.55;5.38;;;;;;;;;;5092601;28;20069;-79
2023/09/02 03:05:04;;;;;;;9.40;5.55;;;;;;;;;;5090691;28;20047;-78
2023/09/02 03:07:29;;;;;;;6.22;5.10;;;;;;;;;;5092613;28;20020;-79
2023/09/02 03:09:55;;;;;;;7.63;5.15;;;;;;;;;;5073944;28;20525;-79
2023/09/02 03:12:20;;;;;;;8.73;5.63;;;;;;;;;;5091136;28;20082;-79
2023/09/02 03:14:47;;;;;;;10.23;5.70;;;;;;;;;;5091837;28;20036;-79
2023/09/02 03:17:14;;;;;;;9.50;5.45;;;;;;;;;;5074309;28;20037;-79
2023/09/02 03:19:44;;;;;;;11.85;5.70;;;;;;;;;;5073669;28;20032;-78
2023/09/02 03:22:10;;;;;;;8.70;6.00;;;;;;;;;;5099719;28;20096;-78
2023/09/02 03:24:36;;;;;;;9.70;5.30;;;;;;;;;;5057952;28;20118;-78
2023/09/02 03:27:03;;;;;;;10.27;5.68;;;;;;;;;;5071267;28;20487;-78
2023/09/02 03:29:29;;;;;;;9.98;5.57;;;;;;;;;;5090344;28;20477;-77
2023/09/02 03:31:56;;;;;;;9.85;6.45;;;;;;;;;;5090726;28;20567;-79
2023/09/02 03:34:22;;;;;;;9.48;5.60;;;;;;;;;;5082372;28;20118;-78
2023/09/02 03:36:47;;;;;;;12.30;6.30;;;;;;;;;;5073787;28;20123;-79
2023/09/02 03:39:13;;;;;;;8.48;5.80;;;;;;;;;;5089942;28;20082;-79
2023/09/02 03:41:40;;;;;;;9.23;6.20;;;;;;;;;;5091782;28;20498;-78
2023/09/02 03:44:05;;;;;;;12.43;6.60;;;;;;;;;;5084059;28;20438;-79
2023/09/02 03:46:31;;;;;;;7.72;5.80;;;;;;;;;;5082676;28;20073;-79
2023/09/02 03:49:21;;;;;;;11.60;6.43;;;;;;;;;;5079772;28;20085;-79
2023/09/02 03:51:47;;;;;;;12.90;7.28;;;;;;;;;;5087097;28;20032;-78
2023/09/02 03:54:13;;;;;;;8.40;6.25;;;;;;;;;;5101217;28;20398;-79
2023/09/02 03:56:39;;;;;;;10.32;6.95;;;;;;;;;;5090578;28;20028;-79
2023/09/02 03:59:05;;;;;;;9.57;6.32;;;;;;;;;;5096981;28;20016;-79
2023/09/02 04:01:32;;;;;;;10.57;6.47;;;;;;;;;;5077423;28;20071;-79
2023/09/02 04:03:57;;;;;;;12.68;6.30;;;;;;;;;;5091689;28;20068;-79
2023/09/02 04:06:22;;;;;;;8.77;6.63;;;;;;;;;;5089916;28;20036;-79
2023/09/02 04:08:48;;;;;;;8.35;6.35;;;;;;;;;;5063754;28;20024;-79
2023/09/02 04:11:13;;;;;;;9.20;6.35;;;;;;;;;;5085664;28;20133;-79
2023/09/02 04:13:39;;;;;;;12.38;6.20;;;;;;;;;;5090085;28;20107;-79
2023/09/02 04:16:10;;;;;;;9.50;6.25;;;;;;;;;;5072395;28;20548;-79
2023/09/02 04:18:36;;;;;;;7.90;6.20;;;;;;;;;;5089589;28;20123;-79
2023/09/02 04:21:02;;;;;;;8.35;5.20;;;;;;;;;;5072608;28;20115;-79
2023/09/02 04:23:29;;;;;;;7.43;5.30;;;;;;;;;;5070389;28;20037;-79
2023/09/02 04:25:55;;;;;;;7.50;5.63;;;;;;;;;;5089337;28;20442;-79
2023/09/02 04:28:22;;;;;;;8.20;6.03;;;;;;;;;;5069731;28;20491;-79
2023/09/02 04:30:49;;;;;;;8.88;5.85;;;;;;;;;;5072735;28;20122;-78
2023/09/02 04:33:15;;;;;;;6.65;5.10;;;;;;;;;;5089946;28;20044;-79
2023/09/02 04:35:43;;;;;;;7.97;6.25;;;;;;;;;;5078998;28;20020;-79
2023/09/02 04:38:09;;;;;;;8.13;6.50;;;;;;;;;;5072955;28;20073;-79
2023/09/02 04:40:35;;;;;;;7.82;6.32;;;;;;;;;;5089874;28;20044;-79
2023/09/02 04:43:01;;;;;;;7.45;6.28;;;;;;;;;;5089934;28;20040;-79
2023/09/02 04:45:27;;;;;;;7.32;6.63;;;;;;;;;;5071263;28;20024;-79
2023/09/02 04:47:52;;;;;;;7.72;5.90;;;;;;;;;;5089524;28;20055;-79
2023/09/02 04:50:20;;;;;;;8.93;5.72;;;;;;;;;;5088924;28;20008;-78
2023/09/02 04:52:47;;;;;;;9.13;7.05;;;;;;;;;;5072707;28;20503;-78
2023/09/02 04:55:12;;;;;;;10.15;6.32;;;;;;;;;;5072268;28;20035;-79
2023/09/02 04:57:38;;;;;;;9.65;6.35;;;;;;;;;;5072471;28;20040;-79
2023/09/02 05:00:04;;;;;;;10.63;6.75;;;;;;;;;;5103104;28;21183;-79
2023/09/02 05:02:29;;;;;;;8.00;6.55;;;;;;;;;;5090472;28;20084;-79
2023/09/02 05:04:55;;;;;;;9.02;6.85;;;;;;;;;;5088811;28;20224;-79
2023/09/02 05:07:21;;;;;;;7.95;6.10;;;;;;;;;;5090442;28;20500;-79
2023/09/02 05:09:46;;;;;;;10.25;5.78;;;;;;;;;;5089174;28;20016;-79
2023/09/02 05:12:12;;;;;;;7.63;6.03;;;;;;;;;;5089390;28;20133;-79
2023/09/02 05:14:38;;;;;;;9.32;6.70;;;;;;;;;;5071987;28;20032;-80
2023/09/02 05:17:04;;;;;;;9.40;5.50;;;;;;;;;;5089428;28;20028;-79
2023/09/02 05:19:30;;;;;;;7.72;6.07;;;;;;;;;;5088824;28;20022;-80
2023/09/02 05:21:57;;;;;;;9.13;7.00;;;;;;;;;;5090433;28;20047;-79
2023/09/02 05:24:23;;;;;;;11.23;6.35;;;;;;;;;;5088552;28;20479;-78
2023/09/02 05:26:48;;;;;;;8.07;6.53;;;;;;;;;;5072213;28;20136;-79
2023/09/02 05:29:13;;;;;;;8.60;6.22;;;;;;;;;;5092980;28;20491;-79
2023/09/02 05:31:39;;;;;;;12.32;6.90;;;;;;;;;;5076150;28;20036;-79
2023/09/02 05:34:05;;;;;;;7.05;6.35;;;;;;;;;;5094569;28;20016;-78
2023/09/02 05:36:30;;;;;;;7.38;6.30;;;;;;;;;;5094205;28;20060;-78
2023/09/02 05:38:56;;;;;;;9.35;6.10;;;;;;;;;;5093381;28;20424;-78
2023/09/02 05:41:21;;;;;;;6.90;5.38;;;;;;;;;;5092723;28;20487;-78
2023/09/02 05:43:46;;;;;;;7.05;5.72;;;;;;;;;;5092309;28;20403;-78
2023/09/02 05:46:12;;;;;;;6.82;5.07;;;;;;;;;;5094010;28;20576;-79
2023/09/02 05:48:37;;;;;;;12.30;5.35;;;;;;;;;;5093640;28;20453;-78
2023/09/02 05:51:04;;;;;;;6.75;4.47;;;;;;;;;;5094262;28;20028;-79
2023/09/02 05:53:30;;;;;;;5.88;4.40;;;;;;;;;;5093631;28;20110;-79
2023/09/02 05:55:55;;;;;;;5.45;4.40;;;;;;;;;;5093754;28;20123;-78
2023/09/02 05:58:25;;;;;;;4.72;4.22;;;;;;;;;;5093296;28;20024;-78
2023/09/02 06:00:50;;;;;;;6.70;3.83;;;;;;;;;;5082840;28;20041;-79
2023/09/02 06:03:16;;;;;;;5.45;4.10;;;;;;;;;;5088291;28;20027;-79
2023/09/02 06:05:41;;;;;;;5.95;4.07;;;;;;;;;;5093644;28;20028;-79
2023/09/02 06:08:07;;;;;;;5.07;4.38;;;;;;;;;;5085812;28;20071;-79
2023/09/02 06:10:32;;;;;;;5.82;4.22;;;;;;;;;;5099332;28;20036;-79
2023/09/02 06:12:58;;;;;;;6.40;4.50;;;;;;;;;;5093210;28;20028;-79
2023/09/02 06:15:23;;;;;;;7.45;4.40;;;;;;;;;;5092170;28;20040;-79
2023/09/02 06:17:49;;;;;;;4.57;3.80;;;;;;;;;;5092964;28;20390;-79
2023/09/02 06:20:16;;;;;;;4.55;3.45;;;;;;;;;;5064886;28;20063;-78
2023/09/02 06:22:44;;;;;;;3.95;3.22;;;;;;;;;;5092756;28;20016;-80
2023/09/02 06:25:10;;;;;;;3.72;2.90;;;;;;;;;;5083262;28;20051;-80
2023/09/02 06:27:35;;;;;;;3.95;3.40;;;;;;;;;;5075112;28;20077;-80
2023/09/02 06:30:01;;;;;;;4.70;3.55;;;;;;;;;;5091777;28;20036;-79
2023/09/02 06:32:26;;;;;;;3.67;3.20;;;;;;;;;;5073959;28;20099;-79
2023/09/02 06:34:53;;;;;;;4.28;2.90;;;;;;;;;;5080175;28;20034;-80
2023/09/02 06:37:19;;;;;;;3.40;2.92;;;;;;;;;;5091544;28;20049;-79
2023/09/02 06:39:44;;;;;;;5.05;3.25;;;;;;;;;;5073704;28;20036;-80
2023/09/02 06:42:09;;;;;;;3.80;3.25;;;;;;;;;;5089637;28;20028;-78
2023/09/02 06:44:35;;;;;;;4.15;2.95;;;;;;;;;;5100294;28;20123;-78
2023/09/02 06:47:00;;;;;;;4.13;3.00;;;;;;;;;;5092474;28;20020;-79
2023/09/02 06:49:26;;;;;;;5.93;2.90;;;;;;;;;;5091397;28;20032;-80
2023/09/02 06:51:51;;;;;;;4.35;2.63;;;;;;;;;;5091283;28;20437;-80
2023/09/02 06:54:17;;;;;;;3.85;2.70;;;;;;;;;;5092332;28;20036;-80
2023/09/02 06:56:44;;;;;;;4.55;3.30;;;;;;;;;;5081689;28;20024;-79
2023/09/02 06:59:09;;;;;;;5.63;3.17;;;;;;;;;;5092851;28;20040;-79
2023/09/02 07:01:34;;;;;;;4.70;3.05;;;;;;;;;;5091304;28;20024;-80
2023/09/02 07:04:00;;;;;;;5.93;3.22;;;;;;;;;;5089354;28;20032;-80
2023/09/02 07:06:26;;;;;;;5.80;3.25;;;;;;;;;;5088579;28;20070;-80
2023/09/02 07:08:51;;;;;;;5.22;3.00;;;;;;;;;;5091101;28;20163;-80
2023/09/02 07:11:17;;;;;;;4.28;3.10;;;;;;;;;;5088066;28;20031;-80
2023/09/02 07:13:48;;;;;;;4.03;2.70;;;;;;;;;;5090915;28;20036;-79
2023/09/02 07:16:15;;;;;;;5.97;3.15;;;;;;;;;;5092418;28;20035;-79
2023/09/02 07:18:40;;;;;;;4.07;2.45;;;;;;;;;;5085196;28;20028;-79
2023/09/02 07:21:06;;;;;;;4.85;2.33;;;;;;;;;;5090200;28;20043;-80
2023/09/02 07:23:32;;;;;;;3.53;1.85;;;;;;;;;;5090796;28;20491;-80
2023/09/02 07:25:59;;;;;;;3.88;2.17;;;;;;;;;;5090899;28;20056;-78
2023/09/02 07:28:25;;;;;;;2.63;1.60;;;;;;;;;;5090704;28;20038;-79
2023/09/02 07:30:50;;;;;;;2.17;1.48;;;;;;;;;;5090287;28;20114;-79
2023/09/02 07:33:16;;;;;;;2.55;1.50;;;;;;;;;;5092070;28;20540;-79
2023/09/02 07:35:41;;;;;;;2.00;1.35;;;;;;;;;;5092467;28;20032;-79
2023/09/02 07:38:07;;;;;;;2.72;1.48;;;;;;;;;;5091746;28;20534;-79
2023/09/02 07:40:32;;;;;;;1.67;1.10;;;;;;;;;;5091555;28;20036;-79
2023/09/02 07:43:00;;;;;;;1.70;1.17;;;;;;;;;;5090213;28;20038;-79
2023/09/02 07:45:25;;;;;;;1.98;1.20;;;;;;;;;;5089914;28;20028;-79
2023/09/02 07:47:50;;;;;;;1.73;1.08;;;;;;;;;;5091468;28;20038;-79
2023/09/02 07:50:16;;;;;;;3.15;1.77;;;;;;;;;;5086246;28;20039;-79
2023/09/02 07:52:41;;;;;;;2.45;1.88;;;;;;;;;;5091522;28;20062;-79
2023/09/02 07:55:08;;;;;;;2.15;1.17;;;;;;;;;;5090801;28;20054;-79
2023/09/02 07:57:33;;;;;;;1.52;1.13;;;;;;;;;;5091474;28;20345;-79
2023/09/02 07:59:59;;;;;;;1.75;1.35;;;;;;;;;;5090768;28;20499;-80
2023/09/02 08:02:24;;;;;;;2.10;1.50;;;;;;;;;;5091410;28;20119;-79
2023/09/02 08:04:50;;;;;;;2.10;1.40;;;;;;;;;;5090840;28;20112;-79
2023/09/02 08:07:15;;;;;;;2.92;1.70;;;;;;;;;;5091180;28;20043;-80
2023/09/02 08:09:41;;;;;;;3.80;1.67;;;;;;;;;;5090541;28;20032;-80
2023/09/02 08:12:06;;;;;;;3.67;1.88;;;;;;;;;;5091408;28;20767;-80
2023/09/02 08:14:32;;;;;;;3.92;2.47;;;;;;;;;;5089710;28;20055;-80
2023/09/02 08:16:57;;;;;;;4.32;2.22;;;;;;;;;;5072912;28;20031;-79
2023/09/02 08:19:23;;;;;;;3.00;1.90;;;;;;;;;;5090638;28;20043;-79
2023/09/02 08:21:48;;;;;;;5.07;2.20;;;;;;;;;;5090817;28;20455;-79
2023/09/02 08:24:14;;;;;;;7.20;1.85;;;;;;;;;;5081488;28;20115;-79
2023/09/02 08:26:40;;;;;;;2.88;1.73;;;;;;;;;;5081021;28;20136;-79
2023/09/02 08:29:05;;;;;;;4.25;2.05;;;;;;;;;;5089292;28;20078;-78
2023/09/02 08:31:31;;;;;;;4.95;1.70;;;;;;;;;;5084202;28;20036;-79
2023/09/02 08:33:57;;;;;;;3.40;2.20;;;;;;;;;;5083334;28;20467;-79
2023/09/02 08:36:22;;;;;;;2.83;1.90;;;;;;;;;;5085475;28;20036;-80
2023/09/02 08:38:48;;;;;;;3.78;1.80;;;;;;;;;;5090999;28;20514;-80
2023/09/02 08:41:17;;;;;;;3.10;1.65;;;;;;;;;;5085022;28;20024;-80
2023/09/02 08:43:42;;;;;;;3.50;2.20;;;;;;;;;;5084972;28;20040;-81
2023/09/02 08:46:11;;;;;;;5.38;2.50;;;;;;;;;;5090746;28;20024;-80
2023/09/02 08:48:40;;;;;;;4.05;2.80;;;;;;;;;;5089357;28;20024;-79
2023/09/02 08:51:05;;;;;;;4.97;3.17;;;;;;;;;;5085146;28;20028;-79
2023/09/02 08:53:31;;;;;;;6.38;3.22;;;;;;;;;;5067832;28;20036;-80
2023/09/02 08:55:56;;;;;;;4.85;2.83;;;;;;;;;;5069419;28;20100;-81
2023/09/02 08:58:22;;;;;;;5.28;3.05;;;;;;;;;;5086168;28;20033;-80
2023/09/02 09:00:47;;;;;;;4.93;2.80;;;;;;;;;;5089899;28;20054;-80
2023/09/02 09:03:13;;;;;;;7.10;2.65;;;;;;;;;;5091295;28;20062;-81
2023/09/02 09:05:39;;;;;;;5.18;2.97;;;;;;;;;;5094743;28;20024;-81
2023/09/02 09:08:04;;;;;;;4.15;2.95;;;;;;;;;;5091664;28;20124;-79
2023/09/02 09:10:32;;;;;;;4.70;2.65;;;;;;;;;;5093983;28;20486;-80
2023/09/02 09:12:58;;;;;;;5.65;2.75;;;;;;;;;;5093467;28;20104;-79
2023/09/02 09:15:23;;;;;;;7.50;2.97;;;;;;;;;;5097764;28;20031;-80
2023/09/02 09:17:48;;;;;;;6.03;3.17;;;;;;;;;;5097922;28;20028;-81
2023/09/02 09:20:17;;;;;;;7.97;3.00;;;;;;;;;;5097057;28;20115;-81
2023/09/02 09:22:43;;;;;;;7.28;2.97;;;;;;;;;;5095934;28;20063;-80
2023/09/02 09:25:08;;;;;;;6.22;2.97;;;;;;;;;;5093589;28;20098;-80
2023/09/02 09:27:34;;;;;;;5.53;3.13;;;;;;;;;;5092652;28;20038;-80
2023/09/02 09:30:00;;;;;;;8.48;3.20;;;;;;;;;;5089523;28;20028;-80
2023/09/02 09:32:25;;;;;;;5.45;2.80;;;;;;;;;;5094192;28;20470;-80
2023/09/02 09:34:51;;;;;;;5.72;2.70;;;;;;;;;;5076633;28;20505;-79
2023/09/02 09:37:16;;;;;;;7.90;2.95;;;;;;;;;;5094132;28;20107;-79
2023/09/02 09:39:43;;;;;;;5.28;2.50;;;;;;;;;;5092354;28;20020;-78
2023/09/02 09:42:10;;;;;;;6.63;3.20;;;;;;;;;;5092721;28;20047;-80
2023/09/02 09:44:36;;;;;;;5.38;2.40;;;;;;;;;;5065572;28;20487;-80
2023/09/02 09:47:02;;;;;;;3.40;2.28;;;;;;;;;;5092623;28;20040;-80
2023/09/02 09:49:31;;;;;;;5.13;2.08;;;;;;;;;;5073851;28;20083;-80
2023/09/02 09:51:59;;;;;;;3.65;2.05;;;;;;;;;;5082006;28;20035;-80
2023/09/02 09:54:41;;;;;;;3.58;2.42;;;;;;;;;;5087483;28;20046;-80
2023/09/02 09:57:10;;;;;;;3.83;2.45;;;;;;;;;;5093852;28;20039;-80
2023/09/02 09:59:35;;;;;;;3.88;2.00;;;;;;;;;;5088732;28;20043;-80
2023/09/02 10:02:04;;;;;;;3.83;2.60;;;;;;;;;;5088744;28;20032;-78
2023/09/02 10:04:30;;;;;;;3.70;2.28;;;;;;;;;;5077893;28;20032;-79
2023/09/02 10:07:00;;;;;;;2.97;1.95;;;;;;;;;;5069724;28;20036;-81
2023/09/02 10:09:37;;;;;;;5.63;2.33;;;;;;;;;;5092362;28;20076;-80
2023/09/02 10:12:10;;;;;;;3.28;2.17;;;;;;;;;;5073836;28;20024;-79
2023/09/02 10:14:36;;;;;;;6.72;2.30;;;;;;;;;;5091170;28;20039;-80
2023/09/02 10:17:01;;;;;;;8.30;2.80;;;;;;;;;;5092986;28;20028;-78
2023/09/02 10:19:27;;;;;;;3.75;2.33;;;;;;;;;;5091870;28;20047;-80
2023/09/02 10:21:52;;;;;;;4.50;2.40;;;;;;;;;;5091884;28;20020;-81
2023/09/02 10:24:18;;;;;;;4.03;2.17;;;;;;;;;;5089957;28;20051;-81
2023/09/02 10:26:48;;;;;;;3.90;1.98;;;;;;;;;;5088745;28;20117;-79
2023/09/02 10:29:14;;;;;;;3.20;2.03;;;;;;;;;;5062303;28;20372;-80
2023/09/02 10:31:45;;;;;;;3.78;2.00;;;;;;;;;;5086147;28;20046;-80
2023/09/02 10:34:15;;;;;;;3.90;2.65;;;;;;;;;;5080802;28;20357;-82
2023/09/02 10:36:42;;;;;;;3.40;2.30;;;;;;;;;;5090221;28;20024;-81
2023/09/02 10:39:09;;;;;;;4.15;2.60;;;;;;;;;;5072597;28;20033;-80
2023/09/02 10:41:35;;;;;;;7.03;2.28;;;;;;;;;;5095118;28;20040;-79
2023/09/02 10:44:00;;;;;;;5.88;2.65;;;;;;;;;;5088274;28;20020;-82
2023/09/02 10:46:26;;;;;;;5.43;2.40;;;;;;;;;;5069851;28;20156;-82
2023/09/02 10:48:51;;;;;;;3.88;2.60;;;;;;;;;;5084098;28;20031;-80
2023/09/02 10:51:17;;;;;;;3.35;2.40;;;;;;;;;;5074166;28;20551;-80
2023/09/02 10:53:51;;;;;;;3.35;2.13;;;;;;;;;;5098597;28;20028;-81
2023/09/02 10:56:33;;;;;;;2.97;1.98;;;;;;;;;;5092241;28;20043;-82
2023/09/02 10:58:59;;;;;;;4.45;2.78;;;;;;;;;;5094084;28;20032;-81
2023/09/02 11:01:24;;;;;;;6.25;3.10;;;;;;;;;;5092112;28;20028;-80
2023/09/02 11:03:50;;;;;;;4.60;2.17;;;;;;;;;;5071517;28;20039;-80
2023/09/02 11:06:17;;;;;;;3.35;2.22;;;;;;;;;;5080217;28;20424;-81
2023/09/02 11:08:49;;;;;;;3.95;2.47;;;;;;;;;;5084578;28;20062;-80
2023/09/02 11:11:15;;;;;;;4.15;2.42;;;;;;;;;;5077538;28;20082;-79
2023/09/02 11:13:59;;;;;;;6.07;2.40;;;;;;;;;;5080292;28;20024;-80
2023/09/02 11:16:25;;;;;;;4.35;2.53;;;;;;;;;;5080550;28;20047;-80
2023/09/02 11:18:51;;;;;;;6.25;2.05;;;;;;;;;;5076588;28;20028;-80
2023/09/02 11:21:35;;;;;;;3.30;2.17;;;;;;;;;;5081309;28;20082;-80
2023/09/02 11:24:27;;;;;;;3.50;1.98;;;;;;;;;;5090972;28;20028;-80
2023/09/02 11:26:53;;;;;;;5.00;2.15;;;;;;;;;;5080562;28;20048;-81
2023/09/02 11:29:25;;;;;;;5.82;1.70;;;;;;;;;;5078495;28;20413;-81
2023/09/02 11:31:55;;;;;;;5.72;1.70;;;;;;;;;;5079150;28;20048;-81
2023/09/02 11:34:21;;;;;;;5.57;1.75;;;;;;;;;;5071969;28;20044;-81
2023/09/02 11:36:46;;;;;;;4.28;1.80;;;;;;;;;;5089285;28;20043;-81
2023/09/02 11:39:12;;;;;;;4.78;1.70;;;;;;;;;;5086162;28;20024;-82
2023/09/02 11:41:37;;;;;;;3.22;1.60;;;;;;;;;;5081266;28;20097;-80
2023/09/02 11:44:09;;;;;;;2.92;1.55;;;;;;;;;;5086278;28;20074;-81
2023/09/02 11:46:37;;;;;;;3.72;1.70;;;;;;;;;;5091339;28;20032;-81
2023/09/02 11:49:02;;;;;;;3.80;1.75;;;;;;;;;;5084684;28;20023;-81
2023/09/02 11:51:28;;;;;;;2.47;1.73;;;;;;;;;;5092267;28;20486;-81
2023/09/02 11:53:57;;;;;;;7.45;1.90;;;;;;;;;;5091080;28;20547;-80
2023/09/02 11:56:24;;;;;;;4.55;1.60;;;;;;;;;;5084004;28;20043;-80
2023/09/02 11:58:49;;;;;;;5.95;1.55;;;;;;;;;;5091485;28;20374;-81
2023/09/02 12:01:15;;;;;;;2.58;1.50;;;;;;;;;;5087613;28;20044;-80
2023/09/02 12:03:40;;;;;;;2.20;1.52;;;;;;;;;;5090851;28;20371;-80
2023/09/02 12:06:06;;;;;;;2.60;1.20;;;;;;;;;;5090186;28;20028;-81
2023/09/02 12:08:32;;;;;;;3.15;1.35;;;;;;;;;;5073209;28;20061;-80
2023/09/02 12:11:04;;;;;;;2.30;1.50;;;;;;;;;;5079750;28;20414;-80
2023/09/02 12:13:30;;;;;;;3.55;1.60;;;;;;;;;;5090498;28;20038;-81
2023/09/02 12:15:56;;;;;;;2.45;1.60;;;;;;;;;;5088446;28;20024;-80
2023/09/02 12:18:21;;;;;;;3.85;1.60;;;;;;;;;;5083712;28;20139;-81
2023/09/02 12:20:46;;;;;;;3.10;1.48;;;;;;;;;;5088783;28;20527;-80
2023/09/02 12:23:12;;;;;;;1.85;1.33;;;;;;;;;;5077979;28;20407;-80
2023/09/02 12:25:39;;;;;;;2.80;1.27;;;;;;;;;;5086703;28;20142;-82
2023/09/02 12:28:14;;;;;;;3.30;1.40;;;;;;;;;;5082431;28;20032;-81
2023/09/02 12:30:39;;;;;;;2.92;1.40;;;;;;;;;;5087253;28;20024;-81
2023/09/02 12:33:05;;;;;;;3.50;1.40;;;;;;;;;;5081687;28;20169;-80
2023/09/02 12:35:31;;;;;;;4.00;1.50;;;;;;;;;;5082489;28;20040;-81
2023/09/02 12:38:06;;;;;;;6.50;1.80;;;;;;;;;;5089832;28;20100;-81
2023/09/02 12:40:32;;;;;;;;;;;;;;;;;;5079819;28;20067;-80
2023/09/02 12:42:57;;;;;;;;;;;;;;;;;;5089653;28;19955;-79
2023/09/02 12:45:32;;;;;;;3.67;1.60;;;;;;;;;;5089225;28;20398;-78
2023/09/02 12:47:58;;;;;;;3.85;1.80;;;;;;;;;;5080663;28;20231;-80
2023/09/02 12:50:24;;;;;;;3.78;1.60;;;;;;;;;;5090326;28;20040;-79
2023/09/02 12:52:59;;;;;;;10.20;1.60;;;;;;;;;;5089389;28;20043;-79
2023/09/02 12:55:25;;;;;;;;;;;;;;;;;;5088896;28;20039;-79
2023/09/02 12:57:50;;;;;;;3.03;1.80;;;;;;;;;;5091177;28;20347;-79
2023/09/02 13:00:16;;;;;;;3.15;1.70;;;;;;;;;;5090196;28;20036;-79
2023/09/02 13:02:41;;;;;;;3.83;1.85;;;;;;;;;;5089761;28;20028;-80
2023/09/02 13:05:07;;;;;;;3.22;1.55;;;;;;;;;;5100421;28;20081;-79
2023/09/02 13:07:32;;;;;;;3.63;1.70;;;;;;;;;;5084422;28;20028;-79
2023/09/02 13:09:58;;;;;;;2.42;1.30;;;;;;;;;;5088660;28;20047;-80
2023/09/02 13:12:25;;;;;;;3.30;1.40;;;;;;;;;;5090772;28;20031;-79
2023/09/02 13:14:51;;;;;;;2.30;1.40;;;;;;;;;;5090153;28;20032;-80
2023/09/02 13:17:17;;;;;;;3.53;1.70;;;;;;;;;;5083383;28;20027;-78
2023/09/02 13:19:44;;;;;;;4.05;1.75;;;;;;;;;;5081767;28;20124;-78
2023/09/02 13:22:09;;;;;;;5.78;1.35;;;;;;;;;;5078047;28;20487;-79
2023/09/02 13:24:35;;;;;;;5.10;2.28;;;;;;;;;;5087973;28;20034;-79
2023/09/02 13:27:00;;;;;;;4.20;2.33;;;;;;;;;;5089708;28;20048;-79
2023/09/02 13:29:26;;;;;;;3.30;1.83;;;;;;;;;;5068623;28;20040;-80
2023/09/02 13:31:52;;;;;;;5.80;1.90;;;;;;;;;;5088040;28;20058;-80
2023/09/02 13:34:44;;;;;;;3.13;1.80;;;;;;;;;;5086395;28;20522;-79
2023/09/02 13:37:25;;;;;;;4.10;2.05;;;;;;;;;;5079874;28;20486;-79
2023/09/02 13:39:53;;;;;;;3.78;1.83;;;;;;;;;;5089907;28;20570;-79
2023/09/02 13:42:19;;;;;;;5.78;2.00;;;;;;;;;;5084646;28;20028;-79
2023/09/02 13:44:45;;;;;;;3.60;1.90;;;;;;;;;;5091972;28;20036;-79
2023/09/02 13:47:10;;;;;;;3.63;1.65;;;;;;;;;;5085565;28;20029;-80
2023/09/02 13:49:38;;;;;;;4.00;1.67;;;;;;;;;;5093720;28;20086;-79
2023/09/02 13:52:03;;;;;;;1.85;1.42;;;;;;;;;;5087207;28;20066;-79
2023/09/02 13:54:29;;;;;;;5.15;1.50;;;;;;;;;;5086736;28;20430;-79
2023/09/02 13:56:54;;;;;;;3.63;1.70;;;;;;;;;;5091485;28;20020;-78
2023/09/02 13:59:24;;;;;;;5.68;1.90;;;;;;;;;;5092444;28;20060;-80
2023/09/02 14:01:49;;;;;;;5.63;1.90;;;;;;;;;;5081829;28;20103;-80
2023/09/02 14:04:15;;;;;;;2.40;1.40;;;;;;;;;;5081912;28;20127;-78
2023/09/02 14:06:41;;;;;;;3.85;1.65;;;;;;;;;;5079593;28;20032;-79
2023/09/02 14:09:13;;;;;;;7.97;1.40;;;;;;;;;;5093933;28;20091;-80
2023/09/02 14:11:38;;;;;;;2.22;1.20;;;;;;;;;;5093111;28;20115;-78
2023/09/02 14:14:04;;;;;;;3.17;1.50;;;;;;;;;;5092214;28;20118;-80
2023/09/02 14:16:31;;;;;;;2.55;1.52;;;;;;;;;;5087290;28;20063;-79
2023/09/02 14:18:56;;;;;;;2.83;1.70;;;;;;;;;;5093152;28;20027;-79
2023/09/02 14:21:22;;;;;;;5.15;1.60;;;;;;;;;;5093338;28;20047;-79
2023/09/02 14:23:47;;;;;;;4.95;1.63;;;;;;;;;;5085366;28;20043;-79
2023/09/02 14:26:13;;;;;;;3.10;1.65;;;;;;;;;;5083163;28;20399;-79
2023/09/02 14:28:38;;;;;;;3.80;1.35;;;;;;;;;;5092637;28;20123;-79
2023/09/02 14:31:05;;;;;;;2.65;1.70;;;;;;;;;;5089276;28;20452;-79
2023/09/02 14:33:30;;;;;;;2.95;1.90;;;;;;;;;;5078022;28;20028;-80
2023/09/02 14:35:56;;;;;;;2.97;1.77;;;;;;;;;;5086160;28;20081;-80
2023/09/02 14:38:21;;;;;;;3.22;1.73;;;;;;;;;;5091864;28;20502;-80
2023/09/02 14:40:47;;;;;;;3.70;1.75;;;;;;;;;;5092808;28;20574;-80